sensor_id;sensor_type;location;lat;lon;timestamp;pressure;altitude;pressure_sealevel;temperature;humidity
13050;BME280;6591;51.446;5.404;2023-12-20T00:01:07;101344.81;;;13.13;57.73
13050;BME280;6591;51.446;5.404;2023-12-20T00:03:34;101341.47;;;13.08;57.42
13050;BME280;6591;51.446;5.404;2023-12-20T00:06:09;101337.28;;;13.02;57.78
13050;BME280;6591;51.446;5.404;2023-12-20T00:08:37;101338.44;;;12.97;57.84
13050;BME280;6591;51.446;5.404;2023-12-20T00:11:04;101338.72;;;12.91;57.60
13050;BME280;6591;51.446;5.404;2023-12-20T00:13:31;101340.72;;;12.86;57.70
13050;BME280;6591;51.446;5.404;2023-12-20T00:15:58;101348.09;;;12.81;58.04
13050;BME280;6591;51.446;5.404;2023-12-20T00:18:25;101351.72;;;12.78;57.77
13050;BME280;6591;51.446;5.404;2023-12-20T00:20:52;101344.81;;;12.74;57.86
13050;BME280;6591;51.446;5.404;2023-12-20T00:23:19;101352.09;;;12.70;58.00
13050;BME280;6591;51.446;5.404;2023-12-20T00:25:46;101360.16;;;12.69;58.02
13050;BME280;6591;51.446;5.404;2023-12-20T00:28:14;101352.31;;;12.66;58.06
13050;BME280;6591;51.446;5.404;2023-12-20T00:30:42;101350.66;;;12.63;57.74
13050;BME280;6591;51.446;5.404;2023-12-20T00:33:09;101349.84;;;12.61;57.76
13050;BME280;6591;51.446;5.404;2023-12-20T00:35:36;101349.19;;;12.56;57.67
13050;BME280;6591;51.446;5.404;2023-12-20T00:38:03;101345.88;;;12.51;57.42
13050;BME280;6591;51.446;5.404;2023-12-20T00:40:32;101339.81;;;12.48;57.84
13050;BME280;6591;51.446;5.404;2023-12-20T00:43:00;101340.91;;;12.44;57.91
13050;BME280;6591;51.446;5.404;2023-12-20T00:45:27;101337.44;;;12.42;57.91
13050;BME280;6591;51.446;5.404;2023-12-20T00:47:54;101327.00;;;12.37;57.52
13050;BME280;6591;51.446;5.404;2023-12-20T00:50:21;101336.94;;;12.34;57.56
13050;BME280;6591;51.446;5.404;2023-12-20T00:52:50;101331.81;;;12.29;57.45
13050;BME280;6591;51.446;5.404;2023-12-20T00:55:17;101323.06;;;12.25;57.45
13050;BME280;6591;51.446;5.404;2023-12-20T00:57:44;101336.53;;;12.22;57.83
13050;BME280;6591;51.446;5.404;2023-12-20T01:00:12;101337.50;;;12.20;57.65
13050;BME280;6591;51.446;5.404;2023-12-20T01:02:40;101338.53;;;12.17;57.50
13050;BME280;6591;51.446;5.404;2023-12-20T01:05:07;101334.19;;;12.15;57.63
13050;BME280;6591;51.446;5.404;2023-12-20T01:07:36;101326.22;;;12.15;58.08
13050;BME280;6591;51.446;5.404;2023-12-20T01:10:03;101337.81;;;12.14;57.97
13050;BME280;6591;51.446;5.404;2023-12-20T01:12:30;101331.69;;;12.12;57.88
13050;BME280;6591;51.446;5.404;2023-12-20T01:14:57;101330.81;;;12.11;58.09
13050;BME280;6591;51.446;5.404;2023-12-20T01:17:25;101337.06;;;12.10;58.42
13050;BME280;6591;51.446;5.404;2023-12-20T01:19:52;101339.66;;;12.12;58.35
13050;BME280;6591;51.446;5.404;2023-12-20T01:22:19;101351.13;;;12.14;58.72
13050;BME280;6591;51.446;5.404;2023-12-20T01:24:46;101349.25;;;12.16;58.59
13050;BME280;6591;51.446;5.404;2023-12-20T01:27:13;101347.31;;;12.19;58.98
13050;BME280;6591;51.446;5.404;2023-12-20T01:29:40;101349.91;;;12.21;58.62
13050;BME280;6591;51.446;5.404;2023-12-20T01:32:07;101348.97;;;12.22;58.73
13050;BME280;6591;51.446;5.404;2023-12-20T01:34:34;101344.47;;;12.24;58.79
13050;BME280;6591;51.446;5.404;2023-12-20T01:37:03;101351.44;;;12.26;58.73
13050;BME280;6591;51.446;5.404;2023-12-20T01:39:31;101353.16;;;12.27;58.48
13050;BME280;6591;51.446;5.404;2023-12-20T01:41:58;101350.56;;;12.26;58.74
13050;BME280;6591;51.446;5.404;2023-12-20T01:44:25;101350.56;;;12.26;58.83
13050;BME280;6591;51.446;5.404;2023-12-20T01:46:52;101346.91;;;12.28;58.74
13050;BME280;6591;51.446;5.404;2023-12-20T01:49:19;101346.81;;;12.30;58.71
13050;BME280;6591;51.446;5.404;2023-12-20T01:51:47;101344.09;;;12.31;58.82
13050;BME280;6591;51.446;5.404;2023-12-20T01:54:15;101345.78;;;12.34;59.14
13050;BME280;6591;51.446;5.404;2023-12-20T01:56:42;101342.09;;;12.37;58.95
13050;BME280;6591;51.446;5.404;2023-12-20T01:59:10;101338.50;;;12.38;58.94
13050;BME280;6591;51.446;5.404;2023-12-20T02:01:37;101342.75;;;12.42;59.14
13050;BME280;6591;51.446;5.404;2023-12-20T02:04:04;101339.16;;;12.43;58.84
13050;BME280;6591;51.446;5.404;2023-12-20T02:06:34;101332.03;;;12.43;58.91
13050;BME280;6591;51.446;5.404;2023-12-20T02:09:01;101340.91;;;12.44;58.58
13050;BME280;6591;51.446;5.404;2023-12-20T02:11:29;101332.97;;;12.42;58.47
13050;BME280;6591;51.446;5.404;2023-12-20T02:13:56;101344.56;;;12.41;57.88
13050;BME280;6591;51.446;5.404;2023-12-20T02:16:23;101341.16;;;12.38;58.04
13050;BME280;6591;51.446;5.404;2023-12-20T02:18:50;101340.38;;;12.36;57.59
13050;BME280;6591;51.446;5.404;2023-12-20T02:21:17;101350.25;;;12.34;58.21
13050;BME280;6591;51.446;5.404;2023-12-20T02:23:44;101352.03;;;12.33;58.70
13050;BME280;6591;51.446;5.404;2023-12-20T02:26:13;101341.38;;;12.33;58.73
13050;BME280;6591;51.446;5.404;2023-12-20T02:28:40;101344.03;;;12.33;58.55
13050;BME280;6591;51.446;5.404;2023-12-20T02:31:07;101345.69;;;12.36;58.42
13050;BME280;6591;51.446;5.404;2023-12-20T02:33:35;101340.50;;;12.32;58.31
13050;BME280;6591;51.446;5.404;2023-12-20T02:36:02;101324.53;;;12.32;58.40
13050;BME280;6591;51.446;5.404;2023-12-20T02:38:29;101330.78;;;12.31;58.63
13050;BME280;6591;51.446;5.404;2023-12-20T02:40:56;101336.97;;;12.32;58.54
13050;BME280;6591;51.446;5.404;2023-12-20T02:43:23;101341.50;;;12.30;58.65
13050;BME280;6591;51.446;5.404;2023-12-20T02:45:50;101335.41;;;12.28;58.39
13050;BME280;6591;51.446;5.404;2023-12-20T02:48:18;101343.38;;;12.28;58.42
13050;BME280;6591;51.446;5.404;2023-12-20T02:50:47;101345.13;;;12.29;59.08
13050;BME280;6591;51.446;5.404;2023-12-20T02:53:15;101344.91;;;12.34;59.05
13050;BME280;6591;51.446;5.404;2023-12-20T02:55:42;101344.84;;;12.35;58.98
13050;BME280;6591;51.446;5.404;2023-12-20T02:58:09;101337.69;;;12.36;58.93
13050;BME280;6591;51.446;5.404;2023-12-20T03:00:36;101335.91;;;12.36;58.64
13050;BME280;6591;51.446;5.404;2023-12-20T03:03:04;101335.78;;;12.39;58.78
13050;BME280;6591;51.446;5.404;2023-12-20T03:05:31;101336.66;;;12.40;58.18
13050;BME280;6591;51.446;5.404;2023-12-20T03:07:58;101343.69;;;12.41;57.94
13050;BME280;6591;51.446;5.404;2023-12-20T03:10:25;101337.63;;;12.37;57.95
13050;BME280;6591;51.446;5.404;2023-12-20T03:12:53;101338.66;;;12.35;57.80
13050;BME280;6591;51.446;5.404;2023-12-20T03:15:20;101336.97;;;12.32;57.42
13050;BME280;6591;51.446;5.404;2023-12-20T03:17:47;101332.69;;;12.29;57.55
13050;BME280;6591;51.446;5.404;2023-12-20T03:20:15;101327.47;;;12.26;58.10
13050;BME280;6591;51.446;5.404;2023-12-20T03:22:42;101320.41;;;12.25;58.04
13050;BME280;6591;51.446;5.404;2023-12-20T03:25:09;101318.75;;;12.23;57.81
13050;BME280;6591;51.446;5.404;2023-12-20T03:27:39;101315.28;;;12.21;57.90
13050;BME280;6591;51.446;5.404;2023-12-20T03:30:07;101318.81;;;12.21;58.46
13050;BME280;6591;51.446;5.404;2023-12-20T03:32:34;101317.91;;;12.22;58.71
13050;BME280;6591;51.446;5.404;2023-12-20T03:35:01;101320.50;;;12.24;58.59
13050;BME280;6591;51.446;5.404;2023-12-20T03:37:28;101311.50;;;12.26;58.89
13050;BME280;6591;51.446;5.404;2023-12-20T03:39:55;101321.94;;;12.31;58.73
13050;BME280;6591;51.446;5.404;2023-12-20T03:42:22;101314.69;;;12.35;59.04
13050;BME280;6591;51.446;5.404;2023-12-20T03:44:49;101318.88;;;12.40;59.24
13050;BME280;6591;51.446;5.404;2023-12-20T03:47:16;101312.59;;;12.41;59.10
13050;BME280;6591;51.446;5.404;2023-12-20T03:49:43;101308.03;;;12.45;59.01
13050;BME280;6591;51.446;5.404;2023-12-20T03:52:10;101301.66;;;12.47;59.09
13050;BME280;6591;51.446;5.404;2023-12-20T03:54:38;101302.41;;;12.51;59.12
13050;BME280;6591;51.446;5.404;2023-12-20T03:57:05;101304.94;;;12.54;59.34
13050;BME280;6591;51.446;5.404;2023-12-20T03:59:36;101310.97;;;12.57;59.58
13050;BME280;6591;51.446;5.404;2023-12-20T04:02:04;101308.94;;;12.62;59.38
13050;BME280;6591;51.446;5.404;2023-12-20T04:04:31;101309.75;;;12.64;59.32
13050;BME280;6591;51.446;5.404;2023-12-20T04:06:58;101306.88;;;12.69;59.71
13050;BME280;6591;51.446;5.404;2023-12-20T04:09:25;101315.59;;;12.72;59.64
13050;BME280;6591;51.446;5.404;2023-12-20T04:11:52;101308.41;;;12.74;59.29
13050;BME280;6591;51.446;5.404;2023-12-20T04:14:19;101307.47;;;12.76;59.55
13050;BME280;6591;51.446;5.404;2023-12-20T04:16:46;101311.69;;;12.80;59.07
13050;BME280;6591;51.446;5.404;2023-12-20T04:19:13;101315.06;;;12.83;59.26
13050;BME280;6591;51.446;5.404;2023-12-20T04:21:41;101312.34;;;12.85;59.72
13050;BME280;6591;51.446;5.404;2023-12-20T04:24:08;101311.25;;;12.89;59.50
13050;BME280;6591;51.446;5.404;2023-12-20T04:26:35;101312.00;;;12.92;59.19
13050;BME280;6591;51.446;5.404;2023-12-20T04:29:02;101308.31;;;12.95;59.70
13050;BME280;6591;51.446;5.404;2023-12-20T04:31:29;101311.78;;;12.97;59.08
13050;BME280;6591;51.446;5.404;2023-12-20T04:33:56;101319.63;;;13.00;59.17
13050;BME280;6591;51.446;5.404;2023-12-20T04:36:23;101325.75;;;13.02;59.39
13050;BME280;6591;51.446;5.404;2023-12-20T04:38:53;101325.59;;;13.05;59.50
13050;BME280;6591;51.446;5.404;2023-12-20T04:41:20;101320.13;;;13.08;59.11
13050;BME280;6591;51.446;5.404;2023-12-20T04:43:47;101305.84;;;13.09;59.23
13050;BME280;6591;51.446;5.404;2023-12-20T04:46:14;101326.19;;;13.11;59.02
13050;BME280;6591;51.446;5.404;2023-12-20T04:48:41;101318.13;;;13.13;59.21
13050;BME280;6591;51.446;5.404;2023-12-20T04:51:08;101318.13;;;13.13;59.04
13050;BME280;6591;51.446;5.404;2023-12-20T04:53:35;101322.50;;;13.14;59.11
13050;BME280;6591;51.446;5.404;2023-12-20T04:56:02;101312.59;;;13.18;58.96
13050;BME280;6591;51.446;5.404;2023-12-20T04:58:29;101308.13;;;13.18;59.19
13050;BME280;6591;51.446;5.404;2023-12-20T05:00:56;101315.16;;;13.19;58.97
13050;BME280;6591;51.446;5.404;2023-12-20T05:03:23;101314.22;;;13.20;58.90
13050;BME280;6591;51.446;5.404;2023-12-20T05:05:51;101312.47;;;13.19;59.33
13050;BME280;6591;51.446;5.404;2023-12-20T05:08:17;101296.47;;;13.19;59.33
13050;BME280;6591;51.446;5.404;2023-12-20T05:10:45;101300.88;;;13.20;59.00
13050;BME280;6591;51.446;5.404;2023-12-20T05:13:11;101305.22;;;13.23;59.18
13050;BME280;6591;51.446;5.404;2023-12-20T05:15:39;101299.78;;;13.24;59.21
13050;BME280;6591;51.446;5.404;2023-12-20T05:18:06;101294.31;;;13.27;59.16
13050;BME280;6591;51.446;5.404;2023-12-20T05:20:33;101292.53;;;13.28;58.92
13050;BME280;6591;51.446;5.404;2023-12-20T05:23:00;101294.16;;;13.30;59.15
13050;BME280;6591;51.446;5.404;2023-12-20T05:25:27;101295.81;;;13.33;58.99
13050;BME280;6591;51.446;5.404;2023-12-20T05:27:54;101297.47;;;13.35;59.13
13050;BME280;6591;51.446;5.404;2023-12-20T05:30:23;101296.53;;;13.36;58.93
13050;BME280;6591;51.446;5.404;2023-12-20T05:32:50;101300.00;;;13.38;58.70
13050;BME280;6591;51.446;5.404;2023-12-20T05:35:18;101299.91;;;13.40;59.03
13050;BME280;6591;51.446;5.404;2023-12-20T05:37:46;101300.75;;;13.40;58.98
13050;BME280;6591;51.446;5.404;2023-12-20T05:40:13;101300.75;;;13.40;58.83
13050;BME280;6591;51.446;5.404;2023-12-20T05:42:40;101303.38;;;13.42;59.06
13050;BME280;6591;51.446;5.404;2023-12-20T05:45:09;101295.28;;;13.43;59.27
13050;BME280;6591;51.446;5.404;2023-12-20T05:47:36;101297.03;;;13.44;58.84
13050;BME280;6591;51.446;5.404;2023-12-20T05:50:03;101304.06;;;13.45;59.08
13050;BME280;6591;51.446;5.404;2023-12-20T05:52:31;101307.69;;;13.44;58.62
13050;BME280;6591;51.446;5.404;2023-12-20T05:54:57;101316.47;;;13.46;58.70
13050;BME280;6591;51.446;5.404;2023-12-20T05:57:28;101310.38;;;13.44;58.72
13050;BME280;6591;51.446;5.404;2023-12-20T05:59:55;101305.97;;;13.43;58.27
13050;BME280;6591;51.446;5.404;2023-12-20T06:02:22;101300.88;;;13.39;58.09
13050;BME280;6591;51.446;5.404;2023-12-20T06:04:49;101314.25;;;13.37;58.13
13050;BME280;6591;51.446;5.404;2023-12-20T06:07:16;101321.63;;;13.32;57.89
13050;BME280;6591;51.446;5.404;2023-12-20T06:09:44;101326.31;;;13.27;57.81
13050;BME280;6591;51.446;5.404;2023-12-20T06:12:11;101322.16;;;13.22;57.70
13050;BME280;6591;51.446;5.404;2023-12-20T06:14:38;101329.50;;;13.17;57.31
13050;BME280;6591;51.446;5.404;2023-12-20T06:17:05;101327.16;;;13.09;57.22
13050;BME280;6591;51.446;5.404;2023-12-20T06:19:32;101322.16;;;13.03;57.10
13050;BME280;6591;51.446;5.404;2023-12-20T06:22:00;101310.97;;;12.95;57.35
13050;BME280;6591;51.446;5.404;2023-12-20T06:24:26;101311.34;;;12.87;57.52
13050;BME280;6591;51.446;5.404;2023-12-20T06:26:54;101316.09;;;12.81;56.90
13050;BME280;6591;51.446;5.404;2023-12-20T06:29:22;101323.44;;;12.76;57.16
13050;BME280;6591;51.446;5.404;2023-12-20T06:31:49;101318.41;;;12.69;57.22
13050;BME280;6591;51.446;5.404;2023-12-20T06:34:16;101316.88;;;12.64;57.18
13050;BME280;6591;51.446;5.404;2023-12-20T06:36:44;101312.69;;;12.58;57.55
13050;BME280;6591;51.446;5.404;2023-12-20T06:39:11;101324.44;;;12.54;57.37
13050;BME280;6591;51.446;5.404;2023-12-20T06:41:39;101318.41;;;12.51;58.05
13050;BME280;6591;51.446;5.404;2023-12-20T06:44:06;101323.78;;;12.49;58.09
13050;BME280;6591;51.446;5.404;2023-12-20T06:46:34;101328.34;;;12.46;58.14
13050;BME280;6591;51.446;5.404;2023-12-20T06:49:03;101313.34;;;12.45;58.27
13050;BME280;6591;51.446;5.404;2023-12-20T06:51:30;101315.13;;;12.44;57.98
13050;BME280;6591;51.446;5.404;2023-12-20T06:53:57;101321.25;;;12.46;58.89
13050;BME280;6591;51.446;5.404;2023-12-20T06:56:24;101324.72;;;12.48;58.34
13050;BME280;6591;51.446;5.404;2023-12-20T06:58:52;101318.41;;;12.51;58.59
13050;BME280;6591;51.446;5.404;2023-12-20T07:01:19;101313.78;;;12.54;58.85
13050;BME280;6591;51.446;5.404;2023-12-20T07:03:46;101316.22;;;12.59;59.22
13050;BME280;6591;51.446;5.404;2023-12-20T07:06:13;101315.16;;;12.63;59.08
13050;BME280;6591;51.446;5.404;2023-12-20T07:08:43;101315.94;;;12.65;58.95
13050;BME280;6591;51.446;5.404;2023-12-20T07:11:10;101318.56;;;12.66;58.74
13050;BME280;6591;51.446;5.404;2023-12-20T07:13:37;101311.50;;;12.65;58.79
13050;BME280;6591;51.446;5.404;2023-12-20T07:16:05;101302.63;;;12.65;58.57
13050;BME280;6591;51.446;5.404;2023-12-20T07:18:32;101312.47;;;12.63;58.00
13050;BME280;6591;51.446;5.404;2023-12-20T07:20:59;101301.97;;;12.60;57.62
13050;BME280;6591;51.446;5.404;2023-12-20T07:23:26;101301.19;;;12.58;57.53
13050;BME280;6591;51.446;5.404;2023-12-20T07:25:53;101300.41;;;12.56;58.26
13050;BME280;6591;51.446;5.404;2023-12-20T07:28:20;101310.25;;;12.54;58.25
13050;BME280;6591;51.446;5.404;2023-12-20T07:30:47;101300.47;;;12.54;58.46
13050;BME280;6591;51.446;5.404;2023-12-20T07:33:14;101316.38;;;12.56;59.01
13050;BME280;6591;51.446;5.404;2023-12-20T07:35:41;101316.16;;;12.60;59.08
13050;BME280;6591;51.446;5.404;2023-12-20T07:38:09;101315.09;;;12.64;59.46
13050;BME280;6591;51.446;5.404;2023-12-20T07:40:36;101318.41;;;12.69;59.56
13050;BME280;6591;51.446;5.404;2023-12-20T07:43:04;101309.25;;;12.75;60.42
13050;BME280;6591;51.446;5.404;2023-12-20T07:45:30;101324.03;;;12.82;59.96
13050;BME280;6591;51.446;5.404;2023-12-20T07:47:58;101319.25;;;12.89;59.46
13050;BME280;6591;51.446;5.404;2023-12-20T07:50:25;101310.16;;;12.93;59.68
13050;BME280;6591;51.446;5.404;2023-12-20T07:52:53;101308.19;;;12.98;59.51
13050;BME280;6591;51.446;5.404;2023-12-20T07:55:20;101310.63;;;13.02;59.77
13050;BME280;6591;51.446;5.404;2023-12-20T07:57:47;101306.88;;;13.06;59.50
13050;BME280;6591;51.446;5.404;2023-12-20T08:00:18;101308.66;;;13.06;59.50
13050;BME280;6591;51.446;5.404;2023-12-20T08:02:45;101308.41;;;13.12;59.31
13050;BME280;6591;51.446;5.404;2023-12-20T08:05:13;101316.19;;;13.17;58.95
13050;BME280;6591;51.446;5.404;2023-12-20T08:07:42;101308.13;;;13.18;59.33
13050;BME280;6591;51.446;5.404;2023-12-20T08:10:10;101323.03;;;13.22;59.22
13050;BME280;6591;51.446;5.404;2023-12-20T08:12:37;101310.47;;;13.24;59.69
13050;BME280;6591;51.446;5.404;2023-12-20T08:15:07;101324.47;;;13.29;59.42
13050;BME280;6591;51.446;5.404;2023-12-20T08:17:34;101320.84;;;13.30;59.50
13050;BME280;6591;51.446;5.404;2023-12-20T08:20:01;101318.03;;;13.33;59.22
13050;BME280;6591;51.446;5.404;2023-12-20T08:22:29;101321.47;;;13.35;59.56
13050;BME280;6591;51.446;5.404;2023-12-20T08:24:56;101324.94;;;13.37;59.03
13050;BME280;6591;51.446;5.404;2023-12-20T08:27:23;101323.13;;;13.38;59.11
13050;BME280;6591;51.446;5.404;2023-12-20T08:29:50;101336.41;;;13.39;59.23
13050;BME280;6591;51.446;5.404;2023-12-20T08:32:17;101332.88;;;13.39;58.99
13050;BME280;6591;51.446;5.404;2023-12-20T08:34:48;101327.53;;;13.39;58.76
13050;BME280;6591;51.446;5.404;2023-12-20T08:37:15;101333.75;;;13.39;59.24
13050;BME280;6591;51.446;5.404;2023-12-20T08:39:42;101343.44;;;13.40;59.44
13050;BME280;6591;51.446;5.404;2023-12-20T08:42:12;101346.03;;;13.42;59.45
13050;BME280;6591;51.446;5.404;2023-12-20T08:44:39;101335.25;;;13.45;59.32
13050;BME280;6591;51.446;5.404;2023-12-20T08:47:06;101320.06;;;13.45;59.64
13050;BME280;6591;51.446;5.404;2023-12-20T08:49:33;101316.34;;;13.49;59.25
13050;BME280;6591;51.446;5.404;2023-12-20T08:52:00;101303.88;;;13.50;59.17
13050;BME280;6591;51.446;5.404;2023-12-20T08:54:27;101303.75;;;13.51;59.59
13050;BME280;6591;51.446;5.404;2023-12-20T08:56:54;101302.81;;;13.52;59.83
13050;BME280;6591;51.446;5.404;2023-12-20T08:59:21;101300.00;;;13.55;59.58
13050;BME280;6591;51.446;5.404;2023-12-20T09:01:48;101302.53;;;13.58;59.50
13050;BME280;6591;51.446;5.404;2023-12-20T09:04:21;101303.16;;;13.64;59.34
13050;BME280;6591;51.446;5.404;2023-12-20T09:06:48;101299.38;;;13.68;59.65
13050;BME280;6591;51.446;5.404;2023-12-20T09:09:15;101299.25;;;13.71;59.77
13050;BME280;6591;51.446;5.404;2023-12-20T09:11:42;101310.44;;;13.77;59.43
13050;BME280;6591;51.446;5.404;2023-12-20T09:14:10;101312.97;;;13.80;59.37
13050;BME280;6591;51.446;5.404;2023-12-20T09:16:37;101316.28;;;13.85;59.59
13050;BME280;6591;51.446;5.404;2023-12-20T09:19:04;101311.50;;;13.92;59.54
13050;BME280;6591;51.446;5.404;2023-12-20T09:21:31;101329.84;;;13.98;59.73
13050;BME280;6591;51.446;5.404;2023-12-20T09:23:58;101310.94;;;14.03;59.84
13050;BME280;6591;51.446;5.404;2023-12-20T09:26:25;101316.91;;;14.08;59.52
13050;BME280;6591;51.446;5.404;2023-12-20T09:28:52;101314.94;;;14.11;59.43
13050;BME280;6591;51.446;5.404;2023-12-20T09:31:19;101326.31;;;14.15;58.95
13050;BME280;6591;51.446;5.404;2023-12-20T09:33:46;101320.03;;;14.16;58.83
13050;BME280;6591;51.446;5.404;2023-12-20T09:36:13;101308.53;;;14.14;58.87
13050;BME280;6591;51.446;5.404;2023-12-20T09:38:40;101307.53;;;14.16;58.75
13050;BME280;6591;51.446;5.404;2023-12-20T09:41:10;101296.84;;;14.16;58.71
13050;BME280;6591;51.446;5.404;2023-12-20T09:43:38;101311.00;;;14.18;58.77
13050;BME280;6591;51.446;5.404;2023-12-20T09:46:06;101304.78;;;14.18;58.66
13050;BME280;6591;51.446;5.404;2023-12-20T09:48:37;101308.22;;;14.20;58.73
13050;BME280;6591;51.446;5.404;2023-12-20T09:51:04;101315.22;;;14.22;58.59
13050;BME280;6591;51.446;5.404;2023-12-20T09:53:35;101307.22;;;14.22;58.67
13050;BME280;6591;51.446;5.404;2023-12-20T09:56:05;101310.75;;;14.23;58.76
13050;BME280;6591;51.446;5.404;2023-12-20T09:58:32;101303.59;;;14.23;58.51
13050;BME280;6591;51.446;5.404;2023-12-20T10:01:03;101296.44;;;14.24;58.42
13050;BME280;6591;51.446;5.404;2023-12-20T10:03:31;101293.75;;;14.24;58.57
13050;BME280;6591;51.446;5.404;2023-12-20T10:06:01;101306.97;;;14.27;58.78
13050;BME280;6591;51.446;5.404;2023-12-20T10:08:28;101306.03;;;14.28;58.62
13050;BME280;6591;51.446;5.404;2023-12-20T10:10:57;101297.84;;;14.31;58.79
13050;BME280;6591;51.446;5.404;2023-12-20T10:13:29;101305.59;;;14.35;59.03
13050;BME280;6591;51.446;5.404;2023-12-20T10:15:59;101300.03;;;14.40;58.89
13050;BME280;6591;51.446;5.404;2023-12-20T10:18:29;101285.66;;;14.43;58.99
13050;BME280;6591;51.446;5.404;2023-12-20T10:21:06;101285.66;;;14.43;58.56
13050;BME280;6591;51.446;5.404;2023-12-20T10:23:37;101290.94;;;14.44;58.47
13050;BME280;6591;51.446;5.404;2023-12-20T10:26:06;101286.44;;;14.45;58.80
13050;BME280;6591;51.446;5.404;2023-12-20T10:28:36;101287.28;;;14.45;58.85
13050;BME280;6591;51.446;5.404;2023-12-20T10:31:04;101290.69;;;14.49;58.57
13050;BME280;6591;51.446;5.404;2023-12-20T10:33:31;101294.97;;;14.51;58.61
13050;BME280;6591;51.446;5.404;2023-12-20T10:35:59;101315.50;;;14.51;58.45
13050;BME280;6591;51.446;5.404;2023-12-20T10:38:26;101301.19;;;14.52;58.42
13050;BME280;6591;51.446;5.404;2023-12-20T10:40:58;101295.91;;;14.50;58.41
13050;BME280;6591;51.446;5.404;2023-12-20T10:43:30;101285.22;;;14.50;58.36
13050;BME280;6591;51.446;5.404;2023-12-20T10:45:58;101293.19;;;14.52;58.07
13050;BME280;6591;51.446;5.404;2023-12-20T10:48:27;101291.38;;;14.52;58.45
13050;BME280;6591;51.446;5.404;2023-12-20T10:50:58;101274.47;;;14.52;58.25
13050;BME280;6591;51.446;5.404;2023-12-20T10:53:25;101277.06;;;14.53;58.36
13050;BME280;6591;51.446;5.404;2023-12-20T10:56:00;101269.13;;;14.52;58.23
13050;BME280;6591;51.446;5.404;2023-12-20T10:58:29;101273.53;;;14.53;58.18
13050;BME280;6591;51.446;5.404;2023-12-20T11:01:01;101274.47;;;14.52;58.14
13050;BME280;6591;51.446;5.404;2023-12-20T11:03:36;101245.25;;;14.49;58.07
13050;BME280;6591;51.446;5.404;2023-12-20T11:06:43;101260.50;;;14.47;58.20
13050;BME280;6591;51.446;5.404;2023-12-20T11:09:22;101246.28;;;14.46;58.33
13050;BME280;6591;51.446;5.404;2023-12-20T11:12:13;101249.03;;;14.45;58.28
13050;BME280;6591;51.446;5.404;2023-12-20T11:14:47;101254.22;;;14.48;58.04
13050;BME280;6591;51.446;5.404;2023-12-20T11:17:15;101249.75;;;14.48;58.27
13050;BME280;6591;51.446;5.404;2023-12-20T11:22:35;101252.50;;;14.47;58.34
13050;BME280;6591;51.446;5.404;2023-12-20T11:25:11;101250.59;;;14.49;58.06
13050;BME280;6591;51.446;5.404;2023-12-20T11:27:42;101260.34;;;14.50;57.93
13050;BME280;6591;51.446;5.404;2023-12-20T11:30:14;101255.94;;;14.49;58.13
13050;BME280;6591;51.446;5.404;2023-12-20T11:32:46;101250.59;;;14.49;58.02
13050;BME280;6591;51.446;5.404;2023-12-20T11:37:41;101238.25;;;14.46;57.94
13050;BME280;6591;51.446;5.404;2023-12-20T11:40:18;101232.31;;;14.41;58.08
13050;BME280;6591;51.446;5.404;2023-12-20T11:42:50;101219.03;;;14.39;57.83
13050;BME280;6591;51.446;5.404;2023-12-20T11:45:21;101228.00;;;14.38;58.18
13050;BME280;6591;51.446;5.404;2023-12-20T11:47:53;101223.59;;;14.37;58.15
13050;BME280;6591;51.446;5.404;2023-12-20T11:50:22;101219.34;;;14.33;58.56
13050;BME280;6591;51.446;5.404;2023-12-20T11:52:52;101224.84;;;14.30;57.88
13050;BME280;6591;51.446;5.404;2023-12-20T11:55:20;101227.53;;;14.30;58.46
13050;BME280;6591;51.446;5.404;2023-12-20T11:57:47;101227.53;;;14.30;58.64
13050;BME280;6591;51.446;5.404;2023-12-20T12:00:15;101223.91;;;14.31;58.33
13050;BME280;6591;51.446;5.404;2023-12-20T12:02:43;101214.16;;;14.30;58.47
13050;BME280;6591;51.446;5.404;2023-12-20T12:05:14;101214.25;;;14.29;58.50
13050;BME280;6591;51.446;5.404;2023-12-20T12:07:41;101215.03;;;14.31;58.35
13050;BME280;6591;51.446;5.404;2023-12-20T12:10:08;101195.47;;;14.30;58.59
13050;BME280;6591;51.446;5.404;2023-12-20T12:12:36;101186.59;;;14.30;58.55
13050;BME280;6591;51.446;5.404;2023-12-20T12:15:03;101186.59;;;14.30;58.65
13050;BME280;6591;51.446;5.404;2023-12-20T12:17:31;101192.03;;;14.28;59.04
13050;BME280;6591;51.446;5.404;2023-12-20T12:20:04;101184.97;;;14.27;58.46
13050;BME280;6591;51.446;5.404;2023-12-20T12:22:32;101185.91;;;14.26;58.53
13050;BME280;6591;51.446;5.404;2023-12-20T12:25:10;101181.56;;;14.24;58.33
13050;BME280;6591;51.446;5.404;2023-12-20T12:27:42;101180.75;;;14.23;58.43
13050;BME280;6591;51.446;5.404;2023-12-20T12:30:10;101196.59;;;14.26;58.54
13050;BME280;6591;51.446;5.404;2023-12-20T12:32:40;101200.19;;;14.25;58.45
13050;BME280;6591;51.446;5.404;2023-12-20T12:35:08;101193.13;;;14.24;58.42
13050;BME280;6591;51.446;5.404;2023-12-20T12:37:41;101188.75;;;14.23;58.77
13050;BME280;6591;51.446;5.404;2023-12-20T12:40:11;101188.75;;;14.23;58.53
13050;BME280;6591;51.446;5.404;2023-12-20T12:42:39;101186.78;;;14.27;58.78
13050;BME280;6591;51.446;5.404;2023-12-20T12:45:08;101197.28;;;14.30;58.58
13050;BME280;6591;51.446;5.404;2023-12-20T12:47:36;101174.81;;;14.34;58.49
13050;BME280;6591;51.446;5.404;2023-12-20T12:50:04;101175.56;;;14.36;58.74
13050;BME280;6591;51.446;5.404;2023-12-20T12:52:32;101162.16;;;14.37;58.77
13050;BME280;6591;51.446;5.404;2023-12-20T12:54:59;101161.13;;;14.40;59.01
13050;BME280;6591;51.446;5.404;2023-12-20T12:57:26;101158.28;;;14.43;58.89
13050;BME280;6591;51.446;5.404;2023-12-20T12:59:54;101151.91;;;14.46;58.79
13050;BME280;6591;51.446;5.404;2023-12-20T13:02:20;101153.56;;;14.48;59.09
13050;BME280;6591;51.446;5.404;2023-12-20T13:04:47;101150.81;;;14.50;59.09
13050;BME280;6591;51.446;5.404;2023-12-20T13:07:15;101158.56;;;14.54;59.13
13050;BME280;6591;51.446;5.404;2023-12-20T13:09:42;101167.16;;;14.59;58.99